Time;durP1;ratioP1;P1;durP2;ratioP2;P2;SDS_P1;SDS_P2;PMS_P1;PMS_P2;Temp;Humidity;BMP_temperature;BMP_pressure;BME280_temperature;BME280_humidity;BME280_pressure;Samples;Min_cycle;Max_cycle;Signal;HPM_P1;HPM_P2
2022/11/27 00:02:03;;;;;;;31.35;18.77;;;2.40;76.30;;;;;;5016165;28;20030;-18
2022/11/27 00:04:35;;;;;;;36.15;22.20;;;2.40;76.30;;;;;;5016192;28;20037;-18
2022/11/27 00:07:00;;;;;;;26.35;15.00;;;2.30;76.30;;;;;;5015891;28;20103;-19
2022/11/27 00:09:26;;;;;;;32.72;19.48;;;2.30;76.20;;;;;;5016139;28;20553;-18
2022/11/27 00:11:52;;;;;;;35.08;21.27;;;2.30;76.80;;;;;;5016227;28;20076;-19
2022/11/27 00:14:18;;;;;;;29.60;18.20;;;2.30;76.80;;;;;;5016219;28;20026;-18
2022/11/27 00:16:44;;;;;;;21.02;12.77;;;2.30;76.90;;;;;;5015756;28;20052;-18
2022/11/27 00:19:11;;;;;;;32.92;19.90;;;2.20;76.50;;;;;;5016108;28;20029;-17
2022/11/27 00:21:38;;;;;;;33.35;19.63;;;2.20;76.80;;;;;;5016503;28;20048;-17
2022/11/27 00:24:06;;;;;;;35.13;20.67;;;2.20;77.20;;;;;;5015517;28;20034;-18
2022/11/27 00:26:32;;;;;;;32.38;18.50;;;2.20;77.00;;;;;;5015534;28;20033;-17
2022/11/27 00:29:00;;;;;;;33.03;18.63;;;2.10;77.20;;;;;;5015707;28;20044;-18
2022/11/27 00:31:31;;;;;;;31.05;20.00;;;2.10;77.40;;;;;;5015587;28;20034;-16
2022/11/27 00:34:00;;;;;;;31.42;19.67;;;2.10;77.30;;;;;;5015814;28;20029;-20
2022/11/27 00:36:28;;;;;;;34.70;18.98;;;2.00;77.00;;;;;;5015527;28;20105;-18
2022/11/27 00:38:54;;;;;;;41.20;22.38;;;2.00;76.80;;;;;;5015808;28;20026;-17
2022/11/27 00:41:22;;;;;;;37.83;18.52;;;2.00;76.80;;;;;;5015723;28;20028;-18
2022/11/27 00:43:49;;;;;;;36.38;19.10;;;1.90;76.80;;;;;;5015328;28;20033;-16
2022/11/27 00:46:17;;;;;;;34.53;20.48;;;1.90;76.90;;;;;;5015315;28;20117;-17
2022/11/27 00:48:43;;;;;;;34.55;18.63;;;1.90;76.90;;;;;;5015588;28;20512;-17
2022/11/27 00:51:13;;;;;;;34.67;20.38;;;1.90;77.00;;;;;;5015185;28;20033;-18
2022/11/27 00:53:39;;;;;;;35.97;19.55;;;2.00;76.90;;;;;;5015125;28;20041;-18
2022/11/27 00:56:06;;;;;;;33.95;19.33;;;1.90;77.00;;;;;;5014984;28;20079;-18
2022/11/27 00:58:32;;;;;;;33.95;19.23;;;2.00;77.10;;;;;;5015106;28;20573;-17
2022/11/27 01:01:05;;;;;;;30.27;17.73;;;1.90;77.60;;;;;;5014429;28;20022;-16
2022/11/27 01:03:32;;;;;;;31.88;18.52;;;1.90;77.70;;;;;;5013585;28;20037;-18
2022/11/27 01:06:03;;;;;;;31.42;18.77;;;1.90;77.80;;;;;;5014795;28;20026;-17
2022/11/27 01:08:29;;;;;;;33.15;19.40;;;1.90;77.70;;;;;;5015091;28;20037;-16
2022/11/27 01:10:57;;;;;;;28.90;17.70;;;1.90;77.60;;;;;;5014500;28;20030;-16
2022/11/27 01:13:28;;;;;;;32.17;19.50;;;1.80;77.70;;;;;;5013479;28;20030;-17
2022/11/27 01:16:06;;;;;;;33.10;18.73;;;1.80;77.60;;;;;;5014737;28;20508;-17
2022/11/27 01:18:34;;;;;;;33.72;20.23;;;1.70;77.60;;;;;;5015354;28;20156;-14
2022/11/27 01:21:01;;;;;;;21.80;13.25;;;1.70;77.70;;;;;;5014389;28;20498;-17
2022/11/27 01:23:27;;;;;;;25.45;15.52;;;1.70;77.60;;;;;;5014693;28;20041;-17
2022/11/27 01:25:53;;;;;;;29.08;17.50;;;1.70;77.70;;;;;;5014727;28;20034;-16
2022/11/27 01:28:21;;;;;;;31.83;19.05;;;1.70;77.90;;;;;;5014421;28;20038;-18
2022/11/27 01:30:47;;;;;;;29.02;18.50;;;1.70;77.50;;;;;;5014281;28;20026;-19
2022/11/27 01:33:13;;;;;;;33.58;18.55;;;1.60;77.40;;;;;;5014604;28;20026;-18
2022/11/27 01:35:39;;;;;;;22.35;13.27;;;1.60;77.60;;;;;;5014366;28;20021;-19
2022/11/27 01:38:05;;;;;;;29.08;16.60;;;1.70;77.70;;;;;;5014247;28;20037;-19
2022/11/27 01:40:31;;;;;;;23.50;14.90;;;1.70;77.50;;;;;;5014345;28;20098;-18
2022/11/27 01:42:56;;;;;;;30.63;17.90;;;1.60;77.80;;;;;;5014013;28;20482;-18
2022/11/27 01:45:22;;;;;;;31.20;16.60;;;1.70;78.10;;;;;;5014192;28;20518;-18
2022/11/27 01:47:55;;;;;;;25.65;14.23;;;1.60;77.80;;;;;;5014050;28;20029;-19
2022/11/27 01:50:26;;;;;;;27.35;17.13;;;1.60;77.90;;;;;;5014308;28;20049;-19
2022/11/27 01:52:56;;;;;;;28.08;15.35;;;1.70;78.30;;;;;;5014149;28;20034;-18
2022/11/27 01:55:38;;;;;;;24.25;14.13;;;1.60;78.30;;;;;;5013742;28;20054;-18
2022/11/27 01:58:09;;;;;;;26.80;15.80;;;1.70;78.30;;;;;;5014454;28;20025;-17
2022/11/27 02:00:37;;;;;;;27.55;15.40;;;1.70;78.50;;;;;;5013772;28;20065;-17
2022/11/27 02:03:03;;;;;;;24.77;15.45;;;1.70;78.60;;;;;;5013526;28;20030;-17
2022/11/27 02:05:30;;;;;;;27.48;15.40;;;1.70;78.60;;;;;;5013977;28;20038;-18
2022/11/27 02:08:01;;;;;;;23.95;13.70;;;1.80;78.70;;;;;;5013713;28;20097;-16
2022/11/27 02:10:46;;;;;;;24.63;14.00;;;1.80;78.50;;;;;;5013894;28;20080;-17
2022/11/27 02:13:16;;;;;;;23.90;13.52;;;1.90;78.00;;;;;;5013833;28;20042;-18
2022/11/27 02:16:05;;;;;;;25.98;14.30;;;1.90;77.70;;;;;;5013772;28;20034;-18
2022/11/27 02:19:03;;;;;;;23.40;14.52;;;1.90;77.50;;;;;;5013480;28;20101;-16
2022/11/27 02:21:46;;;;;;;17.70;12.48;;;1.90;77.40;;;;;;4934320;29;20039;-17
2022/11/27 02:24:39;;;;;;;25.42;14.10;;;1.90;77.40;;;;;;4933858;29;20050;-16
2022/11/27 02:27:31;;;;;;;21.30;12.82;;;1.90;77.60;;;;;;4933791;29;20064;-17
2022/11/27 02:30:00;;;;;;;22.65;12.70;;;1.90;77.70;;;;;;4933775;29;20032;-18
2022/11/27 02:32:37;;;;;;;24.23;13.00;;;1.90;78.20;;;;;;4934127;29;20035;-19
2022/11/27 02:35:38;;;;;;;21.15;13.52;;;1.90;78.20;;;;;;4933547;29;20032;-18
2022/11/27 02:38:10;;;;;;;22.48;11.65;;;1.90;77.80;;;;;;4858445;29;20538;-16
2022/11/27 02:40:57;;;;;;;19.65;12.07;;;1.90;77.60;;;;;;4858700;29;20057;-17
2022/11/27 02:43:31;;;;;;;19.23;12.25;;;1.90;77.70;;;;;;4858499;29;20058;-17
2022/11/27 02:45:59;;;;;;;22.42;12.93;;;1.90;78.20;;;;;;4858613;29;20082;-18
2022/11/27 02:48:33;;;;;;;21.52;12.95;;;1.80;78.30;;;;;;4858538;29;20042;-18
2022/11/27 02:51:01;;;;;;;20.75;12.63;;;1.80;78.00;;;;;;4858372;29;20081;-16
2022/11/27 02:53:38;;;;;;;21.58;12.32;;;1.80;78.20;;;;;;4858490;29;20029;-18
2022/11/27 02:56:11;;;;;;;20.73;12.27;;;1.80;78.10;;;;;;4858281;29;20041;-17
2022/11/27 02:58:39;;;;;;;22.30;12.40;;;1.80;78.10;;;;;;4919114;29;20043;-17
2022/11/27 03:01:06;;;;;;;19.08;11.05;;;1.80;78.10;;;;;;4933150;29;20533;-18
2022/11/27 03:03:37;;;;;;;19.05;11.75;;;1.80;78.20;;;;;;4933353;29;20455;-17
2022/11/27 03:06:11;;;;;;;19.70;11.90;;;1.70;78.00;;;;;;4933353;29;20062;-18
2022/11/27 03:08:43;;;;;;;;;;;1.70;78.10;;;;;;4934107;29;20043;-17
2022/11/27 03:11:13;;;;;;;14.77;8.68;;;1.70;79.00;;;;;;4933171;29;19913;-18
2022/11/27 03:13:53;;;;;;;16.05;8.73;;;1.60;79.00;;;;;;4951165;28;20114;-17
2022/11/27 03:16:32;;;;;;;17.35;9.90;;;1.60;78.70;;;;;;5013255;28;20026;-15
2022/11/27 03:19:01;;;;;;;18.20;10.70;;;1.60;78.80;;;;;;5012977;28;20029;-16
2022/11/27 03:21:31;;;;;;;16.48;9.63;;;1.60;79.00;;;;;;5012787;28;20076;-18
2022/11/27 03:23:58;;;;;;;19.80;11.70;;;1.60;79.00;;;;;;5013038;28;20093;-17
2022/11/27 03:26:25;;;;;;;18.17;9.93;;;1.60;79.10;;;;;;5016536;28;20033;-18
2022/11/27 03:28:53;;;;;;;16.42;8.63;;;1.60;79.10;;;;;;5016715;28;20029;-16
2022/11/27 03:31:20;;;;;;;19.45;9.43;;;1.60;78.80;;;;;;5016987;28;20500;-18
2022/11/27 03:33:46;;;;;;;18.98;10.88;;;1.60;78.70;;;;;;5016441;28;20034;-18
2022/11/27 03:36:14;;;;;;;18.48;10.65;;;1.60;78.90;;;;;;5016702;28;20030;-16
2022/11/27 03:38:42;;;;;;;17.65;9.60;;;1.60;78.70;;;;;;5016455;28;20053;-15
2022/11/27 03:41:35;;;;;;;17.67;9.60;;;1.60;78.70;;;;;;5016197;28;20077;-16
2022/11/27 03:44:11;;;;;;;17.77;9.77;;;1.60;78.80;;;;;;5016606;28;20033;-16
2022/11/27 03:46:51;;;;;;;17.40;10.23;;;1.60;78.90;;;;;;5016554;28;20030;-19
2022/11/27 03:49:52;;;;;;;17.13;9.27;;;1.60;78.60;;;;;;5016568;28;20029;-18
2022/11/27 03:53:07;;;;;;;13.95;7.85;;;1.70;78.30;;;;;;4993180;28;20500;-19
2022/11/27 03:55:39;;;;;;;14.73;7.70;;;1.70;78.00;;;;;;5002585;28;20042;-17
2022/11/27 03:58:33;;;;;;;14.35;8.48;;;1.70;78.10;;;;;;5016435;28;20085;-18
2022/11/27 04:01:01;;;;;;;15.88;8.20;;;1.70;78.10;;;;;;5016152;28;20034;-16
2022/11/27 04:03:29;;;;;;;16.50;8.38;;;1.70;78.00;;;;;;5015942;28;20052;-16
2022/11/27 04:05:56;;;;;;;17.65;8.43;;;1.70;78.00;;;;;;5016166;28;20030;-18
2022/11/27 04:08:22;;;;;;;15.20;7.97;;;1.80;78.10;;;;;;5016158;28;20045;-17
2022/11/27 04:10:48;;;;;;;13.55;8.13;;;1.80;78.30;;;;;;5016270;28;20030;-17
2022/11/27 04:13:14;;;;;;;14.07;8.32;;;1.80;78.40;;;;;;5016206;28;20033;-18
2022/11/27 04:15:40;;;;;;;11.00;6.50;;;1.80;78.40;;;;;;5016280;28;20077;-19
2022/11/27 04:18:06;;;;;;;12.70;6.78;;;1.90;78.40;;;;;;5015981;28;20034;-16
2022/11/27 04:20:32;;;;;;;13.38;7.30;;;1.90;78.70;;;;;;5015775;28;20028;-18
2022/11/27 04:22:58;;;;;;;15.65;8.43;;;1.90;78.60;;;;;;5015736;28;20033;-18
2022/11/27 04:25:24;;;;;;;16.20;8.10;;;1.90;78.40;;;;;;5015851;28;20029;-15
2022/11/27 04:27:50;;;;;;;12.60;7.63;;;1.90;78.60;;;;;;5015751;28;20053;-18
2022/11/27 04:30:16;;;;;;;13.25;6.90;;;1.90;78.50;;;;;;5015721;28;20034;-17
2022/11/27 04:32:42;;;;;;;12.05;7.35;;;1.90;78.50;;;;;;5015690;28;20041;-18
2022/11/27 04:35:08;;;;;;;13.70;7.53;;;1.90;78.30;;;;;;5015125;28;20393;-17
2022/11/27 04:37:34;;;;;;;16.33;7.43;;;1.90;78.10;;;;;;5014281;28;20071;-16
2022/11/27 04:40:00;;;;;;;15.68;8.07;;;1.90;78.10;;;;;;5015563;28;20026;-17
2022/11/27 04:42:26;;;;;;;18.20;9.35;;;1.80;78.20;;;;;;5015659;28;20018;-17
2022/11/27 04:44:52;;;;;;;18.42;8.80;;;1.80;78.30;;;;;;5015253;28;20045;-16
2022/11/27 04:47:17;;;;;;;14.85;8.15;;;1.80;78.10;;;;;;5015216;28;20517;-16
2022/11/27 04:49:43;;;;;;;14.10;7.93;;;1.80;78.30;;;;;;5015413;28;20022;-17
2022/11/27 04:52:12;;;;;;;14.13;7.53;;;1.80;78.30;;;;;;5015270;28;20399;-16
2022/11/27 04:54:38;;;;;;;11.52;7.07;;;1.70;78.10;;;;;;5015255;28;20049;-16
2022/11/27 04:57:04;;;;;;;14.95;8.38;;;1.70;78.00;;;;;;5014821;28;20033;-16
2022/11/27 04:59:30;;;;;;;13.90;7.72;;;1.70;78.30;;;;;;5014874;28;20061;-16
2022/11/27 05:01:55;;;;;;;13.57;7.85;;;1.60;78.40;;;;;;5015268;28;20037;-16
2022/11/27 05:04:21;;;;;;;12.90;7.18;;;1.60;78.70;;;;;;5014931;28;20074;-16
2022/11/27 05:06:48;;;;;;;12.48;6.88;;;1.60;78.50;;;;;;5014632;28;20076;-19
2022/11/27 05:09:16;;;;;;;15.52;7.47;;;1.60;78.30;;;;;;5015059;28;20030;-16
2022/11/27 05:11:43;;;;;;;14.77;7.93;;;1.50;78.10;;;;;;5014697;28;20080;-14
2022/11/27 05:14:16;;;;;;;13.48;7.68;;;1.50;78.20;;;;;;5014695;28;20033;-17
2022/11/27 05:16:53;;;;;;;14.32;7.22;;;1.40;78.70;;;;;;5014621;28;20118;-19
2022/11/27 05:19:21;;;;;;;15.18;7.93;;;1.50;78.70;;;;;;5014825;28;20030;-17
2022/11/27 05:21:48;;;;;;;13.23;7.43;;;1.50;79.00;;;;;;5014534;28;20490;-16
2022/11/27 05:24:15;;;;;;;13.20;7.18;;;1.50;79.20;;;;;;5013150;28;20095;-15
2022/11/27 05:26:42;;;;;;;13.48;7.78;;;1.50;78.60;;;;;;5014755;28;20037;-17
2022/11/27 05:29:08;;;;;;;14.38;7.70;;;1.40;78.40;;;;;;5012986;28;20033;-15
2022/11/27 05:31:34;;;;;;;12.23;6.80;;;1.40;78.40;;;;;;5014280;28;20026;-18
2022/11/27 05:34:01;;;;;;;13.52;7.35;;;1.40;78.40;;;;;;5014630;28;20103;-18
2022/11/27 05:36:27;;;;;;;14.07;7.05;;;1.40;78.80;;;;;;5014281;28;20022;-15
2022/11/27 05:38:53;;;;;;;12.02;7.03;;;1.40;79.10;;;;;;5014124;28;20032;-17
2022/11/27 05:41:19;;;;;;;12.45;6.70;;;1.40;79.00;;;;;;5014176;28;20116;-17
2022/11/27 05:43:45;;;;;;;13.10;7.35;;;1.40;78.90;;;;;;5014165;28;20061;-19
2022/11/27 05:46:14;;;;;;;14.45;7.50;;;1.40;78.80;;;;;;5014249;28;20034;-19
2022/11/27 05:48:40;;;;;;;12.90;6.97;;;1.50;78.90;;;;;;5013954;28;20018;-17
2022/11/27 05:51:06;;;;;;;16.50;7.82;;;1.50;78.70;;;;;;5014051;28;20076;-18
2022/11/27 05:53:32;;;;;;;13.00;6.95;;;1.50;78.50;;;;;;5013930;28;20382;-18
2022/11/27 05:56:06;;;;;;;13.90;7.18;;;1.60;78.50;;;;;;5014174;28;20096;-19
2022/11/27 05:58:32;;;;;;;15.52;6.95;;;1.60;78.70;;;;;;5013918;28;20449;-18
2022/11/27 06:00:59;;;;;;;12.60;6.80;;;1.60;78.80;;;;;;5013833;28;20411;-19
2022/11/27 06:03:26;;;;;;;19.65;6.95;;;1.60;79.00;;;;;;5012543;28;20030;-18
2022/11/27 06:05:52;;;;;;;17.05;7.82;;;1.50;78.70;;;;;;5013649;28;20064;-18
2022/11/27 06:08:18;;;;;;;21.27;9.32;;;1.50;78.70;;;;;;5013949;28;20030;-17
2022/11/27 06:10:45;;;;;;;18.63;8.38;;;1.50;79.00;;;;;;5014031;28;20029;-19
2022/11/27 06:13:11;;;;;;;20.27;8.63;;;1.50;79.10;;;;;;5013567;28;20117;-17
2022/11/27 06:15:38;;;;;;;13.82;6.70;;;1.50;79.10;;;;;;5013844;28;20363;-18
2022/11/27 06:18:04;;;;;;;15.63;7.80;;;1.50;78.80;;;;;;5013816;28;20026;-18
2022/11/27 06:20:30;;;;;;;17.75;7.32;;;1.50;78.60;;;;;;5013542;28;20064;-18
2022/11/27 06:22:57;;;;;;;22.88;10.65;;;1.50;78.90;;;;;;5013404;28;20057;-16
2022/11/27 06:25:24;;;;;;;17.58;8.90;;;1.50;78.70;;;;;;5013511;28;20033;-19
2022/11/27 06:27:50;;;;;;;16.30;8.45;;;1.40;78.90;;;;;;5013695;28;20033;-18
2022/11/27 06:30:17;;;;;;;19.23;8.35;;;1.40;78.70;;;;;;5013983;28;20107;-19
2022/11/27 06:32:43;;;;;;;16.17;7.82;;;1.50;78.50;;;;;;5013565;28;20477;-18
2022/11/27 06:35:10;;;;;;;12.55;7.25;;;1.50;78.50;;;;;;5013837;28;20018;-19
2022/11/27 06:37:36;;;;;;;14.05;7.25;;;1.50;78.40;;;;;;5013549;28;20057;-18
2022/11/27 06:40:02;;;;;;;15.15;6.63;;;1.50;78.40;;;;;;5013407;28;20065;-16
2022/11/27 06:42:29;;;;;;;14.68;7.45;;;1.50;78.40;;;;;;5013365;28;20041;-19
2022/11/27 06:44:56;;;;;;;14.50;7.43;;;1.50;78.50;;;;;;5013244;28;20030;-16
2022/11/27 06:47:22;;;;;;;16.67;7.93;;;1.50;78.50;;;;;;5013164;28;20126;-19
2022/11/27 06:49:48;;;;;;;11.30;6.32;;;1.60;78.50;;;;;;5013849;28;20033;-19
2022/11/27 06:52:14;;;;;;;13.23;7.05;;;1.60;78.60;;;;;;5013483;28;20109;-19
2022/11/27 06:54:40;;;;;;;12.02;6.68;;;1.70;78.70;;;;;;5011791;28;20054;-19
2022/11/27 06:57:06;;;;;;;13.52;7.07;;;1.70;78.40;;;;;;5012782;28;20486;-19
2022/11/27 06:59:32;;;;;;;14.30;7.07;;;1.80;78.40;;;;;;5011011;28;20034;-19
2022/11/27 07:01:58;;;;;;;13.90;7.55;;;1.80;78.30;;;;;;5013115;28;20141;-18
2022/11/27 07:04:24;;;;;;;11.50;6.45;;;1.80;78.20;;;;;;5013163;28;20034;-19
2022/11/27 07:06:50;;;;;;;14.40;8.10;;;1.90;78.50;;;;;;5013086;28;20436;-17
2022/11/27 07:09:16;;;;;;;15.43;8.32;;;2.00;78.50;;;;;;5013127;28;20026;-18
2022/11/27 07:11:42;;;;;;;13.80;7.15;;;2.10;78.60;;;;;;5011565;28;20421;-19
2022/11/27 07:14:09;;;;;;;13.32;7.90;;;2.30;78.70;;;;;;5012738;28;20113;-19
2022/11/27 07:16:35;;;;;;;12.75;7.22;;;2.40;78.60;;;;;;5013027;28;20029;-19
2022/11/27 07:19:05;;;;;;;11.68;6.47;;;2.60;78.50;;;;;;5012892;28;20038;-19
2022/11/27 07:21:31;;;;;;;15.73;6.97;;;2.80;78.50;;;;;;5013052;28;20022;-18
2022/11/27 07:23:57;;;;;;;11.43;6.55;;;3.00;78.20;;;;;;5013017;28;20105;-16
2022/11/27 07:26:26;;;;;;;12.40;7.20;;;3.10;77.80;;;;;;5012649;28;20130;-18
2022/11/27 07:28:52;;;;;;;14.93;8.40;;;3.20;77.40;;;;;;5012597;28;20056;-18
2022/11/27 07:31:25;;;;;;;12.70;7.60;;;3.30;77.30;;;;;;5012536;28;20479;-17
2022/11/27 07:33:51;;;;;;;11.73;7.03;;;3.40;76.90;;;;;;5013037;28;20044;-16
2022/11/27 07:36:20;;;;;;;16.00;9.50;;;3.50;76.50;;;;;;5012864;28;20390;-17
2022/11/27 07:38:46;;;;;;;15.43;10.18;;;3.60;76.40;;;;;;5012688;28;20030;-19
2022/11/27 07:41:13;;;;;;;14.20;7.18;;;3.70;76.60;;;;;;5012638;28;20030;-17
2022/11/27 07:43:40;;;;;;;14.95;6.63;;;3.80;76.40;;;;;;5012914;28;20022;-16
2022/11/27 07:46:11;;;;;;;13.32;7.45;;;3.90;76.30;;;;;;5012604;28;20470;-16
2022/11/27 07:48:38;;;;;;;10.32;6.20;;;4.00;76.10;;;;;;5012604;28;20520;-17
2022/11/27 07:51:06;;;;;;;12.30;7.05;;;4.10;75.70;;;;;;5012618;28;20125;-18
2022/11/27 07:53:36;;;;;;;13.25;7.80;;;4.30;75.40;;;;;;5012790;28;20029;-17
2022/11/27 07:56:03;;;;;;;14.95;7.50;;;4.40;75.50;;;;;;5012481;28;20494;-17
2022/11/27 07:58:29;;;;;;;12.73;6.63;;;4.50;75.20;;;;;;5012848;28;20026;-18
2022/11/27 08:00:55;;;;;;;10.77;7.13;;;4.60;74.50;;;;;;5012798;28;20025;-17
2022/11/27 08:03:22;;;;;;;11.07;7.07;;;4.70;74.70;;;;;;5012431;28;20478;-17
2022/11/27 08:05:48;;;;;;;15.95;7.90;;;4.90;75.20;;;;;;5011172;28;20026;-15
2022/11/27 08:08:13;;;;;;;13.15;7.80;;;4.90;74.70;;;;;;5012468;28;20026;-17
2022/11/27 08:10:39;;;;;;;15.25;8.30;;;5.10;74.40;;;;;;5013222;28;20021;-16
2022/11/27 08:13:06;;;;;;;16.75;8.68;;;5.20;74.40;;;;;;5015733;28;20067;-18
2022/11/27 08:15:32;;;;;;;14.52;7.88;;;5.30;74.00;;;;;;5015831;28;20034;-15
2022/11/27 08:17:58;;;;;;;13.27;8.00;;;5.40;74.00;;;;;;5015586;28;20029;-16
2022/11/27 08:20:24;;;;;;;13.57;7.85;;;5.50;75.20;;;;;;5016251;28;20028;-16
2022/11/27 08:22:50;;;;;;;13.93;7.70;;;5.60;74.60;;;;;;5014132;28;20393;-17
2022/11/27 08:25:16;;;;;;;17.10;7.70;;;5.70;73.70;;;;;;5015520;28;20474;-16
2022/11/27 08:27:42;;;;;;;15.60;8.25;;;5.90;74.10;;;;;;5015804;28;20092;-15
2022/11/27 08:30:09;;;;;;;14.32;8.25;;;6.00;73.20;;;;;;5015419;28;20034;-15
2022/11/27 08:32:40;;;;;;;13.93;8.18;;;6.10;73.30;;;;;;5015352;28;20072;-16
2022/11/27 08:35:07;;;;;;;11.98;7.40;;;6.30;72.70;;;;;;5015450;28;20018;-17
2022/11/27 08:37:33;;;;;;;12.57;7.43;;;6.50;72.70;;;;;;5015677;28;20052;-17
2022/11/27 08:39:59;;;;;;;12.38;7.32;;;6.70;72.50;;;;;;5014012;28;20437;-17
2022/11/27 08:42:25;;;;;;;13.07;7.60;;;6.90;72.30;;;;;;5015775;28;20041;-18
2022/11/27 08:44:51;;;;;;;14.00;7.55;;;7.10;71.70;;;;;;5014998;28;20048;-16
2022/11/27 08:47:17;;;;;;;12.65;7.15;;;7.40;71.60;;;;;;5014059;28;20030;-19
2022/11/27 08:49:43;;;;;;;12.52;7.45;;;7.60;71.30;;;;;;5015266;28;20038;-15
2022/11/27 08:52:10;;;;;;;14.35;8.43;;;7.90;70.00;;;;;;5015327;28;20033;-16
2022/11/27 08:54:36;;;;;;;14.00;8.63;;;8.20;69.70;;;;;;5015216;28;20444;-18
2022/11/27 08:57:03;;;;;;;12.98;6.90;;;8.40;69.80;;;;;;5015224;28;20049;-16
2022/11/27 08:59:29;;;;;;;12.68;8.10;;;8.60;68.40;;;;;;5015260;28;20065;-17
2022/11/27 09:01:55;;;;;;;18.00;9.88;;;8.90;68.90;;;;;;5015025;28;20382;-18
2022/11/27 09:04:21;;;;;;;15.15;8.60;;;9.20;66.20;;;;;;5014783;28;20036;-17
2022/11/27 09:06:50;;;;;;;12.85;7.15;;;9.40;67.50;;;;;;5014548;28;20034;-21
2022/11/27 09:09:15;;;;;;;13.02;7.20;;;9.80;67.60;;;;;;5014956;28;20030;-18
2022/11/27 09:11:41;;;;;;;12.93;7.07;;;10.00;66.10;;;;;;5014684;28;20041;-15
2022/11/27 09:14:08;;;;;;;15.27;8.65;;;10.30;66.90;;;;;;5014795;28;20037;-16
2022/11/27 09:16:34;;;;;;;13.05;7.20;;;10.40;65.90;;;;;;5014479;28;20064;-16
2022/11/27 09:19:00;;;;;;;11.48;6.82;;;10.60;66.50;;;;;;5014243;28;20106;-18
2022/11/27 09:21:32;;;;;;;9.80;5.78;;;10.80;66.60;;;;;;5014532;28;20041;-16
2022/11/27 09:24:00;;;;;;;11.60;6.90;;;10.90;66.00;;;;;;5014072;28;20025;-16
2022/11/27 09:26:28;;;;;;;11.82;6.70;;;11.00;65.50;;;;;;5014480;28;20037;-15
2022/11/27 09:28:56;;;;;;;11.15;6.93;;;11.10;65.50;;;;;;5014097;28;20053;-15
2022/11/27 09:31:23;;;;;;;10.55;6.80;;;11.20;66.20;;;;;;5014612;28;20108;-16
2022/11/27 09:33:49;;;;;;;10.57;6.70;;;11.30;65.80;;;;;;5014561;28;20026;-15
2022/11/27 09:36:19;;;;;;;11.73;6.40;;;11.30;65.90;;;;;;5014717;28;20025;-15
2022/11/27 09:38:45;;;;;;;10.10;7.25;;;11.40;63.90;;;;;;5014205;28;20433;-16
2022/11/27 09:41:32;;;;;;;15.90;9.27;;;11.60;65.70;;;;;;5014190;28;20022;-15
2022/11/27 09:44:19;;;;;;;11.27;6.97;;;11.90;65.50;;;;;;5014133;28;20057;-16
2022/11/27 09:46:45;;;;;;;10.23;6.43;;;12.00;66.00;;;;;;5014461;28;20095;-16
2022/11/27 09:49:42;;;;;;;10.57;6.78;;;12.40;62.80;;;;;;5013834;28;20024;-16
2022/11/27 09:52:19;;;;;;;11.18;6.57;;;12.50;64.00;;;;;;5003735;28;20555;-16
2022/11/27 09:55:01;;;;;;;9.23;5.55;;;12.90;61.10;;;;;;5013815;28;20050;-16
2022/11/27 09:57:32;;;;;;;9.65;6.28;;;13.00;61.80;;;;;;5013959;28;20121;-16
2022/11/27 10:00:03;;;;;;;10.10;6.10;;;13.30;59.70;;;;;;5014211;28;20052;-18
2022/11/27 10:02:31;;;;;;;9.82;7.05;;;13.60;61.70;;;;;;5013943;28;20060;-16
2022/11/27 10:05:01;;;;;;;10.25;7.13;;;13.80;58.80;;;;;;5013456;28;20355;-16
2022/11/27 10:07:58;;;;;;;10.93;6.50;;;14.00;60.30;;;;;;5013680;28;20415;-15
2022/11/27 10:10:30;;;;;;;8.48;5.50;;;14.40;55.00;;;;;;5013673;28;20041;-17
2022/11/27 10:13:23;;;;;;;11.20;6.43;;;14.50;57.90;;;;;;5013831;28;20037;-15
2022/11/27 10:15:51;;;;;;;10.68;7.18;;;14.60;54.30;;;;;;5013538;28;20474;-16
2022/11/27 10:18:35;;;;;;;12.65;8.48;;;14.80;56.30;;;;;;5013340;28;20026;-15
2022/11/27 10:21:29;;;;;;;12.07;7.22;;;14.90;54.30;;;;;;5013290;28;20575;-16
2022/11/27 10:24:05;;;;;;;10.70;6.05;;;14.80;54.30;;;;;;5013761;28;20096;-18
2022/11/27 10:26:40;;;;;;;8.93;6.32;;;14.70;54.90;;;;;;5013389;28;20041;-16
2022/11/27 10:29:41;;;;;;;9.23;6.10;;;14.70;52.80;;;;;;5013578;28;20033;-16
2022/11/27 10:32:14;;;;;;;10.00;6.65;;;14.80;53.30;;;;;;5012012;28;20497;-16
2022/11/27 10:35:01;;;;;;;9.25;6.05;;;14.90;53.30;;;;;;5013168;28;20072;-16
2022/11/27 10:37:52;;;;;;;9.43;6.05;;;15.30;51.10;;;;;;5013525;28;20034;-15
2022/11/27 10:40:27;;;;;;;9.15;5.40;;;15.40;48.20;;;;;;5013255;28;20064;-15
2022/11/27 10:43:14;;;;;;;9.25;6.20;;;15.70;50.70;;;;;;5013418;28;20108;-18
2022/11/27 10:46:07;;;;;;;11.10;6.78;;;16.10;49.80;;;;;;5013133;28;20071;-16
2022/11/27 10:48:33;;;;;;;7.80;4.82;;;16.30;47.70;;;;;;5013126;28;20113;-16
2022/11/27 10:50:59;;;;;;;7.75;4.78;;;16.50;47.30;;;;;;5012938;28;20097;-15
2022/11/27 10:53:28;;;;;;;6.93;4.70;;;16.70;48.10;;;;;;5013886;28;20033;-16
2022/11/27 10:55:56;;;;;;;6.72;4.13;;;16.90;44.40;;;;;;5012894;28;20192;-16
2022/11/27 10:58:39;;;;;;;7.60;4.60;;;17.00;45.60;;;;;;5013459;28;20022;-16
2022/11/27 11:01:14;;;;;;;6.78;4.50;;;17.30;45.20;;;;;;5012806;28;20033;-18
2022/11/27 11:03:40;;;;;;;6.20;4.22;;;17.60;45.70;;;;;;5012979;28;20428;-17
2022/11/27 11:06:28;;;;;;;8.43;4.70;;;17.80;42.50;;;;;;5013130;28;20026;-16
2022/11/27 11:09:06;;;;;;;6.25;3.67;;;17.90;45.20;;;;;;5012401;28;20049;-18
2022/11/27 11:11:32;;;;;;;6.68;4.28;;;17.70;42.70;;;;;;5013137;28;20057;-17
2022/11/27 11:13:58;;;;;;;8.82;4.85;;;17.90;44.50;;;;;;5012959;28;20367;-17
2022/11/27 11:16:31;;;;;;;5.82;3.83;;;18.10;43.10;;;;;;5012944;28;20072;-16
2022/11/27 11:18:57;;;;;;;6.28;3.45;;;18.40;44.70;;;;;;5012729;28;20026;-15
2022/11/27 11:21:26;;;;;;;3.67;2.83;;;18.60;44.10;;;;;;5012769;28;20030;-16
2022/11/27 11:24:14;;;;;;;7.03;4.10;;;18.80;43.40;;;;;;5013261;28;20018;-15
2022/11/27 11:26:50;;;;;;;6.05;3.20;;;19.00;40.40;;;;;;5012853;28;20042;-16
2022/11/27 11:29:36;;;;;;;4.18;2.95;;;19.00;41.10;;;;;;5012828;28;20125;-16
2022/11/27 11:32:11;;;;;;;4.88;2.67;;;19.10;41.80;;;;;;5012711;28;20033;-15
2022/11/27 11:34:43;;;;;;;3.95;2.85;;;19.10;41.10;;;;;;5013435;28;20030;-16
2022/11/27 11:37:28;;;;;;;3.42;2.70;;;19.20;41.80;;;;;;5012483;28;20038;-16
2022/11/27 11:40:03;;;;;;;4.88;2.90;;;19.40;37.60;;;;;;5013018;28;20040;-16
2022/11/27 11:42:31;;;;;;;3.53;2.60;;;19.40;40.80;;;;;;5012672;28;20034;-15
2022/11/27 11:45:16;;;;;;;4.15;2.65;;;18.90;39.80;;;;;;5012372;28;20112;-15
2022/11/27 11:47:48;;;;;;;4.07;2.90;;;18.70;38.90;;;;;;5016309;28;20026;-16
2022/11/27 11:50:24;;;;;;;3.45;2.60;;;18.80;40.00;;;;;;5016445;28;20026;-17
2022/11/27 11:52:59;;;;;;;3.15;2.33;;;18.80;39.50;;;;;;5016314;28;20022;-15
2022/11/27 11:55:55;;;;;;;2.97;2.30;;;18.90;40.50;;;;;;5016016;28;20581;-17
2022/11/27 11:58:59;;;;;;;3.60;2.25;;;19.10;39.90;;;;;;5016222;28;20026;-15
2022/11/27 12:01:52;;;;;;;4.43;2.28;;;19.30;40.60;;;;;;5016541;28;20437;-15
2022/11/27 12:05:01;;;;;;;3.50;2.47;;;19.50;38.00;;;;;;5014874;28;20040;-15
2022/11/27 12:07:47;;;;;;;3.67;2.85;;;19.50;36.90;;;;;;5015999;28;20060;-16
2022/11/27 12:10:23;;;;;;;3.40;2.33;;;19.50;37.30;;;;;;5015978;28;20038;-16
2022/11/27 12:13:30;;;;;;;4.70;2.70;;;19.50;39.00;;;;;;5015903;28;20022;-16
2022/11/27 12:16:18;;;;;;;3.25;2.50;;;19.60;38.90;;;;;;4955649;29;20042;-16
2022/11/27 12:19:19;;;;;;;3.25;2.40;;;19.80;37.20;;;;;;4955273;29;20487;-15
2022/11/27 12:21:47;;;;;;;2.38;2.03;;;19.80;35.80;;;;;;5006730;28;20037;-16
2022/11/27 12:24:42;;;;;;;2.75;2.00;;;19.70;38.70;;;;;;5014318;28;20140;-15
2022/11/27 12:27:51;;;;;;;2.22;1.90;;;19.70;36.10;;;;;;5015443;28;20045;-15
2022/11/27 12:30:56;;;;;;;3.20;2.67;;;19.60;37.20;;;;;;5015727;28;20109;-16
2022/11/27 12:33:39;;;;;;;3.92;2.38;;;19.40;36.30;;;;;;5015588;28;20422;-15
2022/11/27 12:36:14;;;;;;;4.17;2.97;;;19.10;38.50;;;;;;5015825;28;20133;-16
2022/11/27 12:38:47;;;;;;;3.70;2.90;;;19.10;39.40;;;;;;5015350;28;20026;-15
2022/11/27 12:41:27;;;;;;;2.95;2.47;;;19.20;37.20;;;;;;5015716;28;20069;-15
2022/11/27 12:43:59;;;;;;;3.83;2.30;;;19.30;39.20;;;;;;5015642;28;20113;-15
2022/11/27 12:46:38;;;;;;;3.55;2.40;;;19.60;39.90;;;;;;5015089;28;20081;-15
2022/11/27 12:49:28;;;;;;;4.80;2.80;;;19.90;38.60;;;;;;5015090;28;20465;-15
2022/11/27 12:52:17;;;;;;;3.85;2.78;;;20.10;38.00;;;;;;5015242;28;20049;-15
2022/11/27 12:54:56;;;;;;;3.25;2.20;;;20.30;36.10;;;;;;5014901;28;20560;-16
2022/11/27 12:57:47;;;;;;;2.63;2.13;;;20.40;36.30;;;;;;5014239;28;20485;-16
2022/11/27 13:00:17;;;;;;;3.55;2.60;;;20.60;36.70;;;;;;5006947;28;20038;-15
2022/11/27 13:02:49;;;;;;;4.40;2.80;;;20.80;35.70;;;;;;5014871;28;20409;-15
2022/11/27 13:05:28;;;;;;;3.45;2.30;;;20.60;35.70;;;;;;5014820;28;20030;-15
2022/11/27 13:08:05;;;;;;;4.07;2.60;;;20.70;36.40;;;;;;5015102;28;20022;-15